sensor_id;sensor_type;location;lat;lon;timestamp;pressure;altitude;pressure_sealevel;temperature;humidity
81162;BME280;70638;-33.792;151.032;2024-03-25T00:01:17;101287.78;;;23.30;100.00
81162;BME280;70638;-33.792;151.032;2024-03-25T00:03:47;101285.24;;;23.33;100.00
81162;BME280;70638;-33.792;151.032;2024-03-25T00:06:17;101281.20;;;23.43;100.00
81162;BME280;70638;-33.792;151.032;2024-03-25T00:08:48;101280.25;;;23.43;100.00
81162;BME280;70638;-33.792;151.032;2024-03-25T00:11:17;101274.34;;;23.56;100.00
81162;BME280;70638;-33.792;151.032;2024-03-25T00:13:48;101267.88;;;23.68;100.00
81162;BME280;70638;-33.792;151.032;2024-03-25T00:16:19;101269.44;;;23.86;100.00
81162;BME280;70638;-33.792;151.032;2024-03-25T00:18:50;101264.81;;;23.89;100.00
81162;BME280;70638;-33.792;151.032;2024-03-25T00:21:24;101263.88;;;24.13;100.00
81162;BME280;70638;-33.792;151.032;2024-03-25T00:23:58;101259.69;;;24.27;100.00
81162;BME280;70638;-33.792;151.032;2024-03-25T00:26:24;101254.04;;;24.45;100.00
81162;BME280;70638;-33.792;151.032;2024-03-25T00:28:55;101246.84;;;24.51;92.96
81162;BME280;70638;-33.792;151.032;2024-03-25T00:31:22;101246.23;;;24.69;87.99
81162;BME280;70638;-33.792;151.032;2024-03-25T00:33:55;101241.15;;;24.73;86.94
81162;BME280;70638;-33.792;151.032;2024-03-25T00:36:28;101237.48;;;24.82;83.92
81162;BME280;70638;-33.792;151.032;2024-03-25T00:39:01;101232.77;;;24.90;80.65
81162;BME280;70638;-33.792;151.032;2024-03-25T00:41:25;101231.27;;;25.19;82.96
81162;BME280;70638;-33.792;151.032;2024-03-25T00:43:55;101232.28;;;25.28;83.28
81162;BME280;70638;-33.792;151.032;2024-03-25T00:46:29;101228.20;;;25.42;76.97
81162;BME280;70638;-33.792;151.032;2024-03-25T00:48:59;101231.78;;;25.32;76.56
81162;BME280;70638;-33.792;151.032;2024-03-25T00:51:30;101221.10;;;25.40;76.75
81162;BME280;70638;-33.792;151.032;2024-03-25T00:53:57;101221.70;;;25.49;73.82
81162;BME280;70638;-33.792;151.032;2024-03-25T00:56:27;101214.44;;;25.48;70.00
81162;BME280;70638;-33.792;151.032;2024-03-25T00:58:59;101215.89;;;25.48;69.76
81162;BME280;70638;-33.792;151.032;2024-03-25T01:01:31;101215.56;;;25.42;65.54
81162;BME280;70638;-33.792;151.032;2024-03-25T01:03:59;101215.43;;;25.55;67.70
81162;BME280;70638;-33.792;151.032;2024-03-25T01:06:30;101210.95;;;25.61;68.30
81162;BME280;70638;-33.792;151.032;2024-03-25T01:09:02;101203.84;;;25.79;67.64
81162;BME280;70638;-33.792;151.032;2024-03-25T01:11:37;101201.08;;;25.82;64.91
81162;BME280;70638;-33.792;151.032;2024-03-25T01:14:05;101194.45;;;25.92;63.87
81162;BME280;70638;-33.792;151.032;2024-03-25T01:16:36;101194.78;;;26.06;61.02
81162;BME280;70638;-33.792;151.032;2024-03-25T01:19:02;101193.69;;;26.13;60.15
81162;BME280;70638;-33.792;151.032;2024-03-25T01:21:38;101184.77;;;26.28;57.70
81162;BME280;70638;-33.792;151.032;2024-03-25T01:24:04;101181.81;;;26.46;57.94
81162;BME280;70638;-33.792;151.032;2024-03-25T01:26:45;101180.36;;;26.41;57.14
81162;BME280;70638;-33.792;151.032;2024-03-25T01:29:06;101175.94;;;26.39;55.02
81162;BME280;70638;-33.792;151.032;2024-03-25T01:31:37;101178.12;;;26.51;54.20
81162;BME280;70638;-33.792;151.032;2024-03-25T01:34:20;101174.48;;;26.69;51.73
81162;BME280;70638;-33.792;151.032;2024-03-25T01:36:42;101170.24;;;26.62;53.00
81162;BME280;70638;-33.792;151.032;2024-03-25T01:39:08;101168.37;;;26.67;52.57
81162;BME280;70638;-33.792;151.032;2024-03-25T01:41:57;101166.47;;;26.60;52.86
81162;BME280;70638;-33.792;151.032;2024-03-25T01:44:23;101162.34;;;26.82;50.08
81162;BME280;70638;-33.792;151.032;2024-03-25T01:47:07;101160.36;;;26.81;48.92
81162;BME280;70638;-33.792;151.032;2024-03-25T01:49:41;101160.20;;;26.71;48.92
81162;BME280;70638;-33.792;151.032;2024-03-25T01:52:04;101156.92;;;26.71;49.81
81162;BME280;70638;-33.792;151.032;2024-03-25T01:54:23;101148.88;;;26.89;47.13
81162;BME280;70638;-33.792;151.032;2024-03-25T01:56:56;101148.55;;;27.05;45.45
81162;BME280;70638;-33.792;151.032;2024-03-25T01:59:29;101146.39;;;27.04;43.78
81162;BME280;70638;-33.792;151.032;2024-03-25T02:01:56;101142.25;;;27.16;44.14
81162;BME280;70638;-33.792;151.032;2024-03-25T02:04:15;101134.42;;;27.19;42.33
81162;BME280;70638;-33.792;151.032;2024-03-25T02:06:54;101130.27;;;27.33;42.48
81162;BME280;70638;-33.792;151.032;2024-03-25T02:11:49;101121.91;;;27.33;36.46
81162;BME280;70638;-33.792;151.032;2024-03-25T02:14:24;101115.69;;;27.41;37.38
81162;BME280;70638;-33.792;151.032;2024-03-25T02:16:48;101110.77;;;27.36;41.17
81162;BME280;70638;-33.792;151.032;2024-03-25T02:19:34;101110.25;;;27.28;41.67
81162;BME280;70638;-33.792;151.032;2024-03-25T02:29:34;101088.34;;;27.80;34.89
81162;BME280;70638;-33.792;151.032;2024-03-25T02:31:59;101086.08;;;27.67;31.96
81162;BME280;70638;-33.792;151.032;2024-03-25T02:34:45;101084.70;;;27.65;35.15
81162;BME280;70638;-33.792;151.032;2024-03-25T02:36:49;101079.70;;;27.71;35.88
81162;BME280;70638;-33.792;151.032;2024-03-25T02:39:47;101070.02;;;27.65;36.04
81162;BME280;70638;-33.792;151.032;2024-03-25T02:41:55;101073.57;;;27.65;34.70
81162;BME280;70638;-33.792;151.032;2024-03-25T02:49:24;101056.80;;;28.07;28.91
81162;BME280;70638;-33.792;151.032;2024-03-25T02:51:58;101049.20;;;28.19;28.24
81162;BME280;70638;-33.792;151.032;2024-03-25T02:54:30;101039.05;;;28.00;28.26
81162;BME280;70638;-33.792;151.032;2024-03-25T02:56:52;101036.73;;;27.91;29.19
81162;BME280;70638;-33.792;151.032;2024-03-25T02:59:27;101032.70;;;27.82;30.87
81162;BME280;70638;-33.792;151.032;2024-03-25T03:01:54;101032.10;;;27.94;30.41
81162;BME280;70638;-33.792;151.032;2024-03-25T03:04:24;101021.70;;;28.07;29.48
81162;BME280;70638;-33.792;151.032;2024-03-25T03:06:55;101027.34;;;27.86;29.66
81162;BME280;70638;-33.792;151.032;2024-03-25T03:09:25;101020.57;;;27.93;32.48
81162;BME280;70638;-33.792;151.032;2024-03-25T03:11:59;101018.69;;;28.15;31.55
81162;BME280;70638;-33.792;151.032;2024-03-25T03:14:31;101013.56;;;28.31;31.76
81162;BME280;70638;-33.792;151.032;2024-03-25T03:17:00;101007.17;;;28.35;32.07
81162;BME280;70638;-33.792;151.032;2024-03-25T03:19:27;101010.38;;;28.21;31.18
81162;BME280;70638;-33.792;151.032;2024-03-25T03:21:58;101008.42;;;28.06;30.53
81162;BME280;70638;-33.792;151.032;2024-03-25T03:24:28;101013.44;;;28.22;30.33
81162;BME280;70638;-33.792;151.032;2024-03-25T03:26:59;101010.77;;;28.12;30.73
81162;BME280;70638;-33.792;151.032;2024-03-25T03:29:30;101007.66;;;28.00;29.16
81162;BME280;70638;-33.792;151.032;2024-03-25T03:32:01;101004.06;;;27.85;33.01
81162;BME280;70638;-33.792;151.032;2024-03-25T03:34:32;100998.41;;;27.81;33.85
81162;BME280;70638;-33.792;151.032;2024-03-25T03:37:02;100997.23;;;28.01;32.26
81162;BME280;70638;-33.792;151.032;2024-03-25T03:39:33;100986.46;;;28.12;29.09
81162;BME280;70638;-33.792;151.032;2024-03-25T03:42:09;100985.55;;;28.18;29.27
81162;BME280;70638;-33.792;151.032;2024-03-25T03:44:37;100980.47;;;28.21;30.33
81162;BME280;70638;-33.792;151.032;2024-03-25T03:47:04;100981.09;;;28.35;28.81
81162;BME280;70638;-33.792;151.032;2024-03-25T03:49:34;100976.03;;;28.31;29.43
81162;BME280;70638;-33.792;151.032;2024-03-25T03:52:05;100977.02;;;28.36;29.63
81162;BME280;70638;-33.792;151.032;2024-03-25T03:54:35;100964.56;;;28.32;28.14
81162;BME280;70638;-33.792;151.032;2024-03-25T03:57:11;100966.86;;;28.33;29.28
81162;BME280;70638;-33.792;151.032;2024-03-25T03:59:37;100963.80;;;28.35;29.17
81162;BME280;70638;-33.792;151.032;2024-03-25T04:02:08;100958.73;;;28.41;28.71
81162;BME280;70638;-33.792;151.032;2024-03-25T04:04:37;100957.38;;;28.52;30.52
81162;BME280;70638;-33.792;151.032;2024-03-25T04:07:12;100964.45;;;28.58;30.25
81162;BME280;70638;-33.792;151.032;2024-03-25T04:09:39;100963.45;;;28.67;29.21
81162;BME280;70638;-33.792;151.032;2024-03-25T04:12:15;100957.36;;;28.38;28.58
81162;BME280;70638;-33.792;151.032;2024-03-25T04:14:41;100952.19;;;28.23;28.75
81162;BME280;70638;-33.792;151.032;2024-03-25T04:17:15;100952.59;;;28.39;29.54
81162;BME280;70638;-33.792;151.032;2024-03-25T04:19:46;100947.91;;;28.50;29.60
81162;BME280;70638;-33.792;151.032;2024-03-25T04:22:18;100944.41;;;28.54;29.08
81162;BME280;70638;-33.792;151.032;2024-03-25T04:24:47;100940.23;;;28.98;28.82
81162;BME280;70638;-33.792;151.032;2024-03-25T04:27:53;100941.60;;;28.95;28.67
81162;BME280;70638;-33.792;151.032;2024-03-25T04:29:47;100938.45;;;28.65;30.74
81162;BME280;70638;-33.792;151.032;2024-03-25T04:32:14;100940.09;;;28.46;27.16
81162;BME280;70638;-33.792;151.032;2024-03-25T04:34:43;100938.55;;;28.35;27.37
81162;BME280;70638;-33.792;151.032;2024-03-25T04:37:17;100934.87;;;28.38;28.11
81162;BME280;70638;-33.792;151.032;2024-03-25T04:39:44;100933.09;;;28.49;27.92
81162;BME280;70638;-33.792;151.032;2024-03-25T04:42:19;100934.30;;;28.75;27.78
81162;BME280;70638;-33.792;151.032;2024-03-25T04:44:48;100937.00;;;29.00;27.93
81162;BME280;70638;-33.792;151.032;2024-03-25T04:47:21;100933.91;;;28.73;25.53
81162;BME280;70638;-33.792;151.032;2024-03-25T04:49:47;100938.15;;;28.54;27.24
81162;BME280;70638;-33.792;151.032;2024-03-25T04:52:25;100941.62;;;28.74;26.76
81162;BME280;70638;-33.792;151.032;2024-03-25T04:54:51;100935.63;;;29.04;24.49
81162;BME280;70638;-33.792;151.032;2024-03-25T04:57:18;100935.39;;;29.17;23.41
81162;BME280;70638;-33.792;151.032;2024-03-25T04:59:49;100936.36;;;28.87;24.39
81162;BME280;70638;-33.792;151.032;2024-03-25T05:02:20;100932.70;;;28.69;25.14
81162;BME280;70638;-33.792;151.032;2024-03-25T05:04:50;100924.05;;;28.70;23.95
81162;BME280;70638;-33.792;151.032;2024-03-25T05:07:22;100926.37;;;28.89;23.70
81162;BME280;70638;-33.792;151.032;2024-03-25T05:09:51;100924.54;;;28.80;23.18
81162;BME280;70638;-33.792;151.032;2024-03-25T05:12:33;100918.63;;;28.77;23.67
81162;BME280;70638;-33.792;151.032;2024-03-25T05:14:55;100920.12;;;28.62;23.31
81162;BME280;70638;-33.792;151.032;2024-03-25T05:17:28;100922.16;;;28.58;22.51
81162;BME280;70638;-33.792;151.032;2024-03-25T05:19:57;100921.36;;;28.45;22.71
81162;BME280;70638;-33.792;151.032;2024-03-25T05:22:27;100922.62;;;28.34;25.12
81162;BME280;70638;-33.792;151.032;2024-03-25T05:24:56;100918.89;;;28.30;24.81
81162;BME280;70638;-33.792;151.032;2024-03-25T05:27:31;100919.44;;;28.30;25.21
81162;BME280;70638;-33.792;151.032;2024-03-25T05:29:59;100917.62;;;28.35;24.98
81162;BME280;70638;-33.792;151.032;2024-03-25T05:32:31;100920.09;;;28.11;25.63
81162;BME280;70638;-33.792;151.032;2024-03-25T05:35:03;100916.64;;;27.88;26.55
81162;BME280;70638;-33.792;151.032;2024-03-25T05:37:28;100917.41;;;27.82;25.16
81162;BME280;70638;-33.792;151.032;2024-03-25T05:39:58;100917.23;;;27.82;26.84
81162;BME280;70638;-33.792;151.032;2024-03-25T05:42:29;100915.81;;;27.85;25.12
81162;BME280;70638;-33.792;151.032;2024-03-25T05:44:59;100920.13;;;27.79;27.02
81162;BME280;70638;-33.792;151.032;2024-03-25T05:47:32;100921.95;;;27.75;25.93
81162;BME280;70638;-33.792;151.032;2024-03-25T05:50:09;100922.68;;;27.91;27.58
81162;BME280;70638;-33.792;151.032;2024-03-25T05:52:31;100920.52;;;27.79;25.77
81162;BME280;70638;-33.792;151.032;2024-03-25T05:55:01;100922.88;;;28.00;24.95
81162;BME280;70638;-33.792;151.032;2024-03-25T05:57:31;100917.05;;;28.37;24.09
81162;BME280;70638;-33.792;151.032;2024-03-25T06:00:02;100915.44;;;28.52;23.59
81162;BME280;70638;-33.792;151.032;2024-03-25T06:02:32;100913.88;;;28.40;22.88
81162;BME280;70638;-33.792;151.032;2024-03-25T06:05:03;100919.34;;;28.13;23.75
81162;BME280;70638;-33.792;151.032;2024-03-25T06:07:35;100914.59;;;27.97;25.21
81162;BME280;70638;-33.792;151.032;2024-03-25T06:10:07;100920.25;;;28.14;24.76
81162;BME280;70638;-33.792;151.032;2024-03-25T06:12:34;100916.62;;;27.90;25.44
81162;BME280;70638;-33.792;151.032;2024-03-25T06:15:05;100920.94;;;27.92;24.96
81162;BME280;70638;-33.792;151.032;2024-03-25T06:17:35;100922.47;;;27.93;24.92
81162;BME280;70638;-33.792;151.032;2024-03-25T06:20:07;100917.41;;;27.79;25.80
81162;BME280;70638;-33.792;151.032;2024-03-25T06:22:37;100915.78;;;27.69;25.17
81162;BME280;70638;-33.792;151.032;2024-03-25T06:25:07;100913.68;;;27.50;26.34
81162;BME280;70638;-33.792;151.032;2024-03-25T06:27:40;100914.35;;;27.21;27.58
81162;BME280;70638;-33.792;151.032;2024-03-25T06:30:43;100913.80;;;27.37;26.07
81162;BME280;70638;-33.792;151.032;2024-03-25T06:33:14;100913.35;;;27.14;26.52
81162;BME280;70638;-33.792;151.032;2024-03-25T06:35:10;100905.11;;;26.89;29.26
81162;BME280;70638;-33.792;151.032;2024-03-25T06:37:39;100905.55;;;26.82;25.75
81162;BME280;70638;-33.792;151.032;2024-03-25T06:40:12;100906.69;;;27.01;26.30
81162;BME280;70638;-33.792;151.032;2024-03-25T06:42:49;100911.31;;;26.85;30.17
81162;BME280;70638;-33.792;151.032;2024-03-25T06:45:25;100911.16;;;26.93;29.93
81162;BME280;70638;-33.792;151.032;2024-03-25T06:47:46;100920.29;;;26.78;39.23
81162;BME280;70638;-33.792;151.032;2024-03-25T06:50:18;100923.55;;;26.72;45.81
81162;BME280;70638;-33.792;151.032;2024-03-25T06:52:43;100929.83;;;26.70;52.10
81162;BME280;70638;-33.792;151.032;2024-03-25T06:55:16;100923.23;;;26.63;56.30
81162;BME280;70638;-33.792;151.032;2024-03-25T06:57:50;100924.97;;;26.43;59.01
81162;BME280;70638;-33.792;151.032;2024-03-25T07:00:16;100924.73;;;26.26;62.98
81162;BME280;70638;-33.792;151.032;2024-03-25T07:02:45;100927.84;;;26.12;65.36
81162;BME280;70638;-33.792;151.032;2024-03-25T07:05:24;100927.03;;;25.98;67.48
81162;BME280;70638;-33.792;151.032;2024-03-25T07:07:51;100929.62;;;25.80;69.25
81162;BME280;70638;-33.792;151.032;2024-03-25T07:10:19;100933.67;;;25.70;71.23
81162;BME280;70638;-33.792;151.032;2024-03-25T07:12:50;100935.95;;;25.57;75.10
81162;BME280;70638;-33.792;151.032;2024-03-25T07:15:23;100941.05;;;25.46;76.34
81162;BME280;70638;-33.792;151.032;2024-03-25T07:17:48;100945.23;;;25.40;79.57
81162;BME280;70638;-33.792;151.032;2024-03-25T07:20:25;100945.48;;;25.31;80.53
81162;BME280;70638;-33.792;151.032;2024-03-25T07:22:50;100950.03;;;25.19;80.16
81162;BME280;70638;-33.792;151.032;2024-03-25T07:25:20;100948.58;;;25.06;79.12
81162;BME280;70638;-33.792;151.032;2024-03-25T07:27:58;100952.30;;;24.95;80.81
81162;BME280;70638;-33.792;151.032;2024-03-25T07:30:21;100955.27;;;24.82;81.09
81162;BME280;70638;-33.792;151.032;2024-03-25T07:32:52;100959.88;;;24.69;81.38
81162;BME280;70638;-33.792;151.032;2024-03-25T07:35:23;100961.35;;;24.59;81.93
81162;BME280;70638;-33.792;151.032;2024-03-25T07:37:56;100961.78;;;24.50;83.62
81162;BME280;70638;-33.792;151.032;2024-03-25T07:40:24;100968.66;;;24.38;85.54
81162;BME280;70638;-33.792;151.032;2024-03-25T07:42:55;100970.78;;;24.26;86.53
81162;BME280;70638;-33.792;151.032;2024-03-25T07:45:26;100978.75;;;24.12;88.70
81162;BME280;70638;-33.792;151.032;2024-03-25T07:47:57;100986.90;;;23.96;91.99
81162;BME280;70638;-33.792;151.032;2024-03-25T07:50:40;100981.72;;;23.80;93.80
81162;BME280;70638;-33.792;151.032;2024-03-25T07:53:00;100987.02;;;23.70;96.75
81162;BME280;70638;-33.792;151.032;2024-03-25T07:55:33;100986.56;;;23.57;96.25
81162;BME280;70638;-33.792;151.032;2024-03-25T07:58:04;100991.97;;;23.50;97.44
81162;BME280;70638;-33.792;151.032;2024-03-25T08:00:36;100993.30;;;23.41;99.20
81162;BME280;70638;-33.792;151.032;2024-03-25T08:02:59;100992.63;;;23.29;99.21
81162;BME280;70638;-33.792;151.032;2024-03-25T08:05:38;100994.43;;;23.22;100.00
81162;BME280;70638;-33.792;151.032;2024-03-25T08:08:00;100996.14;;;23.11;100.00
81162;BME280;70638;-33.792;151.032;2024-03-25T08:10:40;100994.52;;;23.03;100.00
81162;BME280;70638;-33.792;151.032;2024-03-25T08:13:01;100995.30;;;22.99;100.00
81162;BME280;70638;-33.792;151.032;2024-03-25T08:15:32;100992.95;;;22.92;100.00
81162;BME280;70638;-33.792;151.032;2024-03-25T08:18:03;100996.67;;;22.85;100.00
81162;BME280;70638;-33.792;151.032;2024-03-25T08:20:39;100998.55;;;22.82;100.00
81162;BME280;70638;-33.792;151.032;2024-03-25T08:23:04;100999.81;;;22.82;100.00
81162;BME280;70638;-33.792;151.032;2024-03-25T08:25:35;101001.67;;;22.76;100.00
81162;BME280;70638;-33.792;151.032;2024-03-25T08:28:13;101007.87;;;22.71;100.00
81162;BME280;70638;-33.792;151.032;2024-03-25T08:30:39;101009.48;;;22.68;100.00
81162;BME280;70638;-33.792;151.032;2024-03-25T08:33:06;101014.31;;;22.61;100.00
81162;BME280;70638;-33.792;151.032;2024-03-25T08:35:38;101013.80;;;22.53;100.00
81162;BME280;70638;-33.792;151.032;2024-03-25T08:38:08;101019.71;;;22.40;100.00
81162;BME280;70638;-33.792;151.032;2024-03-25T08:40:39;101020.68;;;22.29;100.00
81162;BME280;70638;-33.792;151.032;2024-03-25T08:43:13;101018.30;;;22.24;100.00
81162;BME280;70638;-33.792;151.032;2024-03-25T08:45:40;101027.84;;;22.16;100.00
81162;BME280;70638;-33.792;151.032;2024-03-25T08:48:11;101025.95;;;22.05;100.00
81162;BME280;70638;-33.792;151.032;2024-03-25T08:50:42;101029.33;;;21.95;100.00
81162;BME280;70638;-33.792;151.032;2024-03-25T08:53:17;101037.66;;;21.88;100.00
81162;BME280;70638;-33.792;151.032;2024-03-25T08:55:49;101044.93;;;21.77;100.00
81162;BME280;70638;-33.792;151.032;2024-03-25T08:58:14;101047.09;;;21.70;100.00
81162;BME280;70638;-33.792;151.032;2024-03-25T09:00:44;101055.71;;;21.61;100.00
81162;BME280;70638;-33.792;151.032;2024-03-25T09:03:15;101070.11;;;21.72;100.00
81162;BME280;70638;-33.792;151.032;2024-03-25T09:05:56;101079.52;;;21.83;100.00
81162;BME280;70638;-33.792;151.032;2024-03-25T09:08:19;101084.73;;;21.79;100.00
81162;BME280;70638;-33.792;151.032;2024-03-25T09:11:10;101095.52;;;21.72;100.00
81162;BME280;70638;-33.792;151.032;2024-03-25T09:13:17;101099.77;;;21.58;100.00
81162;BME280;70638;-33.792;151.032;2024-03-25T09:15:48;101104.03;;;21.58;100.00
81162;BME280;70638;-33.792;151.032;2024-03-25T09:18:19;101105.17;;;21.56;100.00
81162;BME280;70638;-33.792;151.032;2024-03-25T09:20:49;101110.72;;;21.38;100.00
81162;BME280;70638;-33.792;151.032;2024-03-25T09:23:19;101118.54;;;21.34;100.00
81162;BME280;70638;-33.792;151.032;2024-03-25T09:25:54;101122.50;;;21.40;100.00
81162;BME280;70638;-33.792;151.032;2024-03-25T09:28:21;101130.70;;;21.40;100.00
81162;BME280;70638;-33.792;151.032;2024-03-25T09:30:52;101134.77;;;21.29;100.00
81162;BME280;70638;-33.792;151.032;2024-03-25T09:33:37;101136.00;;;21.20;100.00
81162;BME280;70638;-33.792;151.032;2024-03-25T09:35:52;101147.88;;;21.06;100.00
81162;BME280;70638;-33.792;151.032;2024-03-25T09:38:23;101151.45;;;20.85;100.00
81162;BME280;70638;-33.792;151.032;2024-03-25T09:40:57;101158.19;;;20.84;100.00
81162;BME280;70638;-33.792;151.032;2024-03-25T09:43:52;101159.14;;;20.82;100.00
81162;BME280;70638;-33.792;151.032;2024-03-25T09:45:55;101158.33;;;20.80;100.00
81162;BME280;70638;-33.792;151.032;2024-03-25T09:48:26;101158.05;;;20.81;100.00
81162;BME280;70638;-33.792;151.032;2024-03-25T09:50:56;101162.08;;;20.71;100.00
81162;BME280;70638;-33.792;151.032;2024-03-25T09:53:33;101167.66;;;20.60;100.00
81162;BME280;70638;-33.792;151.032;2024-03-25T09:55:58;101168.25;;;20.47;100.00
81162;BME280;70638;-33.792;151.032;2024-03-25T09:58:29;101172.27;;;20.37;100.00
81162;BME280;70638;-33.792;151.032;2024-03-25T10:01:00;101174.85;;;20.26;100.00
81162;BME280;70638;-33.792;151.032;2024-03-25T10:03:29;101177.93;;;20.14;100.00
81162;BME280;70638;-33.792;151.032;2024-03-25T10:06:00;101180.25;;;20.09;100.00
81162;BME280;70638;-33.792;151.032;2024-03-25T10:08:37;101184.40;;;20.03;100.00
81162;BME280;70638;-33.792;151.032;2024-03-25T10:11:07;101186.00;;;19.93;100.00
81162;BME280;70638;-33.792;151.032;2024-03-25T10:13:40;101183.94;;;19.83;100.00
81162;BME280;70638;-33.792;151.032;2024-03-25T10:16:07;101189.80;;;19.73;100.00
81162;BME280;70638;-33.792;151.032;2024-03-25T10:18:39;101189.72;;;19.65;100.00
81162;BME280;70638;-33.792;151.032;2024-03-25T10:21:04;101190.69;;;19.56;100.00
81162;BME280;70638;-33.792;151.032;2024-03-25T10:23:44;101194.58;;;19.47;100.00
81162;BME280;70638;-33.792;151.032;2024-03-25T10:26:04;101202.88;;;19.41;100.00
81162;BME280;70638;-33.792;151.032;2024-03-25T10:28:34;101200.42;;;19.34;100.00
81162;BME280;70638;-33.792;151.032;2024-03-25T10:31:10;101203.50;;;19.31;100.00
81162;BME280;70638;-33.792;151.032;2024-03-25T10:33:39;101206.14;;;19.27;100.00
81162;BME280;70638;-33.792;151.032;2024-03-25T10:36:08;101209.39;;;19.29;100.00
81162;BME280;70638;-33.792;151.032;2024-03-25T10:38:37;101207.95;;;19.25;100.00
81162;BME280;70638;-33.792;151.032;2024-03-25T10:41:12;101204.40;;;19.15;100.00
81162;BME280;70638;-33.792;151.032;2024-03-25T10:43:44;101206.47;;;19.07;100.00
81162;BME280;70638;-33.792;151.032;2024-03-25T10:46:08;101211.58;;;19.00;100.00
81162;BME280;70638;-33.792;151.032;2024-03-25T10:48:40;101215.44;;;18.94;100.00
81162;BME280;70638;-33.792;151.032;2024-03-25T10:51:11;101221.58;;;18.87;100.00
81162;BME280;70638;-33.792;151.032;2024-03-25T10:53:39;101228.33;;;18.82;100.00
81162;BME280;70638;-33.792;151.032;2024-03-25T10:56:10;101235.12;;;18.79;100.00
81162;BME280;70638;-33.792;151.032;2024-03-25T10:58:40;101239.40;;;18.81;100.00
81162;BME280;70638;-33.792;151.032;2024-03-25T11:01:12;101239.08;;;18.79;100.00
81162;BME280;70638;-33.792;151.032;2024-03-25T11:03:42;101242.64;;;18.78;100.00
81162;BME280;70638;-33.792;151.032;2024-03-25T11:06:17;101241.61;;;18.78;100.00
81162;BME280;70638;-33.792;151.032;2024-03-25T11:08:44;101239.91;;;18.74;100.00
81162;BME280;70638;-33.792;151.032;2024-03-25T11:11:18;101241.16;;;18.71;100.00
81162;BME280;70638;-33.792;151.032;2024-03-25T11:13:43;101245.61;;;18.61;100.00
81162;BME280;70638;-33.792;151.032;2024-03-25T11:16:25;101250.45;;;18.53;100.00
81162;BME280;70638;-33.792;151.032;2024-03-25T11:18:51;101251.45;;;18.46;100.00
81162;BME280;70638;-33.792;151.032;2024-03-25T11:21:15;101252.48;;;18.43;100.00
81162;BME280;70638;-33.792;151.032;2024-03-25T11:23:44;101251.62;;;18.37;100.00
81162;BME280;70638;-33.792;151.032;2024-03-25T11:26:24;101253.73;;;18.27;100.00
81162;BME280;70638;-33.792;151.032;2024-03-25T11:28:44;101255.25;;;18.20;100.00
81162;BME280;70638;-33.792;151.032;2024-03-25T11:31:15;101261.19;;;18.12;100.00
81162;BME280;70638;-33.792;151.032;2024-03-25T11:33:46;101259.20;;;18.04;100.00
81162;BME280;70638;-33.792;151.032;2024-03-25T11:36:23;101259.05;;;18.03;100.00
81162;BME280;70638;-33.792;151.032;2024-03-25T11:39:04;101262.95;;;18.01;100.00
81162;BME280;70638;-33.792;151.032;2024-03-25T11:41:17;101260.31;;;17.97;100.00
81162;BME280;70638;-33.792;151.032;2024-03-25T11:43:47;101266.16;;;17.95;100.00
81162;BME280;70638;-33.792;151.032;2024-03-25T11:46:19;101268.56;;;17.94;100.00
81162;BME280;70638;-33.792;151.032;2024-03-25T11:48:48;101269.36;;;17.84;100.00
81162;BME280;70638;-33.792;151.032;2024-03-25T11:51:20;101270.00;;;17.78;100.00
81162;BME280;70638;-33.792;151.032;2024-03-25T11:53:49;101274.23;;;17.77;100.00
81162;BME280;70638;-33.792;151.032;2024-03-25T11:56:29;101274.59;;;17.78;100.00
81162;BME280;70638;-33.792;151.032;2024-03-25T11:58:50;101274.30;;;17.74;100.00
81162;BME280;70638;-33.792;151.032;2024-03-25T12:01:21;101276.84;;;17.71;100.00
81162;BME280;70638;-33.792;151.032;2024-03-25T12:03:52;101277.77;;;17.68;100.00
81162;BME280;70638;-33.792;151.032;2024-03-25T12:06:22;101285.58;;;17.66;100.00
81162;BME280;70638;-33.792;151.032;2024-03-25T12:09:27;101278.67;;;17.59;100.00
81162;BME280;70638;-33.792;151.032;2024-03-25T12:11:23;101272.77;;;17.51;100.00
81162;BME280;70638;-33.792;151.032;2024-03-25T12:13:54;101274.46;;;17.52;100.00
81162;BME280;70638;-33.792;151.032;2024-03-25T12:16:24;101278.55;;;17.56;100.00
81162;BME280;70638;-33.792;151.032;2024-03-25T12:19:05;101278.75;;;17.57;100.00
81162;BME280;70638;-33.792;151.032;2024-03-25T12:21:30;101278.88;;;17.52;100.00
81162;BME280;70638;-33.792;151.032;2024-03-25T12:23:57;101286.85;;;17.46;100.00
81162;BME280;70638;-33.792;151.032;2024-03-25T12:26:25;101286.77;;;17.47;100.00
81162;BME280;70638;-33.792;151.032;2024-03-25T12:29:06;101285.00;;;17.52;100.00
81162;BME280;70638;-33.792;151.032;2024-03-25T12:31:31;101277.61;;;17.51;100.00
81162;BME280;70638;-33.792;151.032;2024-03-25T12:33:56;101282.59;;;17.63;100.00
81162;BME280;70638;-33.792;151.032;2024-03-25T12:36:36;101289.31;;;17.63;100.00
81162;BME280;70638;-33.792;151.032;2024-03-25T12:38:58;101280.11;;;17.61;100.00
81162;BME280;70638;-33.792;151.032;2024-03-25T12:41:28;101282.50;;;17.64;100.00
81162;BME280;70638;-33.792;151.032;2024-03-25T12:43:59;101281.91;;;17.63;100.00
81162;BME280;70638;-33.792;151.032;2024-03-25T12:46:34;101283.78;;;17.64;100.00